Time;durP1;ratioP1;P1;durP2;ratioP2;P2;SDS_P1;SDS_P2;PMS_P1;PMS_P2;Temp;Humidity;BMP_temperature;BMP_pressure;BME280_temperature;BME280_humidity;BME280_pressure;Samples;Min_cycle;Max_cycle;Signal;HPM_P1;HPM_P2
2023/11/16 00:00:12;;;;;;;26.50;3.88;;;;;;;6.92;100.00;101337.06;4982055;28;20044;-78
2023/11/16 00:02:43;;;;;;;12.82;2.80;;;;;;;6.99;100.00;101333.06;5023596;28;20095;-79
2023/11/16 00:05:16;;;;;;;16.40;2.63;;;;;;;6.85;100.00;101339.25;4996690;28;20064;-80
2023/11/16 00:07:44;;;;;;;;;;;;;;;6.96;100.00;101344.41;5008663;28;20597;-79
2023/11/16 00:10:14;;;;;;;21.25;2.58;;;;;;;7.11;100.00;101339.00;4992671;28;20486;-84
2023/11/16 00:12:42;;;;;;;27.33;4.70;;;;;;;7.09;100.00;101339.13;5002041;28;20036;-81
2023/11/16 00:15:08;;;;;;;16.75;3.72;;;;;;;7.06;100.00;101333.38;4993977;28;20040;-78
2023/11/16 00:17:37;;;;;;;15.05;2.40;;;;;;;6.98;100.00;101339.94;5006518;28;20033;-85
2023/11/16 00:20:07;;;;;;;24.05;2.65;;;;;;;6.97;100.00;101334.94;4993020;28;22674;-80
2023/11/16 00:22:33;;;;;;;13.15;2.40;;;;;;;7.00;100.00;101339.84;4997128;28;20038;-81
2023/11/16 00:24:59;;;;;;;16.35;2.65;;;;;;;7.03;100.00;101339.63;4996148;28;20034;-77
2023/11/16 00:27:26;;;;;;;20.23;2.80;;;;;;;7.07;100.00;101332.47;5008344;28;20033;-79
2023/11/16 00:29:52;;;;;;;15.98;2.58;;;;;;;7.04;100.00;101327.53;5005981;28;20563;-78
2023/11/16 00:32:18;;;;;;;14.75;2.63;;;;;;;6.99;100.00;101325.31;4991646;28;20033;-83
2023/11/16 00:34:44;;;;;;;43.70;4.65;;;;;;;7.00;100.00;101329.53;5010861;28;20049;-79
2023/11/16 00:37:10;;;;;;;16.83;2.92;;;;;;;7.01;100.00;101336.34;5002908;28;20185;-77
2023/11/16 00:39:38;;;;;;;9.60;2.40;;;;;;;7.07;100.00;101322.16;4994007;28;21951;-85
2023/11/16 00:42:05;;;;;;;10.68;2.70;;;;;;;7.04;100.00;101325.75;4998314;28;20032;-79
2023/11/16 00:44:30;;;;;;;21.20;3.13;;;;;;;7.08;100.00;101329.72;4994630;28;20552;-79
2023/11/16 00:46:57;;;;;;;17.73;3.20;;;;;;;7.09;100.00;101317.69;5015546;28;20132;-77
2023/11/16 00:49:25;;;;;;;11.98;2.50;;;;;;;7.13;100.00;101319.06;4995513;28;20040;-78
2023/11/16 00:51:51;;;;;;;18.55;3.65;;;;;;;7.14;100.00;101321.53;5001179;28;20067;-80
2023/11/16 00:54:24;;;;;;;17.77;2.67;;;;;;;7.00;100.00;101319.22;5004674;28;20037;-79
2023/11/16 00:56:50;;;;;;;24.02;2.92;;;;;;;7.02;100.00;101320.72;5027597;28;20033;-77
2023/11/16 00:59:16;;;;;;;15.57;2.10;;;;;;;7.09;100.00;101320.25;4992320;28;20037;-79
2023/11/16 01:01:41;;;;;;;17.25;2.97;;;;;;;7.07;100.00;101320.38;4990208;28;20033;-82
2023/11/16 01:04:09;;;;;;;16.45;2.40;;;;;;;6.95;100.00;101324.75;5009492;28;20029;-80
2023/11/16 01:06:35;;;;;;;12.85;2.45;;;;;;;7.07;100.00;101324.72;5023372;28;20046;-78
2023/11/16 01:09:06;;;;;;;10.00;2.60;;;;;;;7.20;100.00;101326.22;4997230;28;20031;-77
2023/11/16 01:11:33;;;;;;;13.82;2.10;;;;;;;7.22;100.00;101326.91;5023505;28;20037;-79
2023/11/16 01:14:01;;;;;;;12.27;2.65;;;;;;;7.14;100.00;101320.69;4989847;28;20083;-78
2023/11/16 01:16:35;;;;;;;13.10;2.90;;;;;;;7.06;100.00;101328.22;4992068;28;20041;-80
2023/11/16 01:19:00;;;;;;;19.42;2.28;;;;;;;7.07;100.00;101324.72;5002639;28;20083;-80
2023/11/16 01:21:26;;;;;;;14.07;2.42;;;;;;;7.07;100.00;101322.16;5004924;28;20112;-79
2023/11/16 01:24:01;;;;;;;17.23;3.38;;;;;;;7.01;100.00;101311.34;5002630;28;20061;-84
2023/11/16 01:26:29;;;;;;;19.92;3.00;;;;;;;7.05;100.00;101314.53;5028927;28;20050;-79
2023/11/16 01:29:05;;;;;;;13.65;2.75;;;;;;;6.93;100.00;101312.88;4994427;28;20076;-79
2023/11/16 01:31:31;;;;;;;12.65;3.00;;;;;;;6.91;100.00;101310.44;4992870;28;20073;-78
2023/11/16 01:33:56;;;;;;;19.88;3.00;;;;;;;6.96;100.00;101308.31;5007544;28;20091;-78
2023/11/16 01:36:24;;;;;;;9.35;2.72;;;;;;;7.01;100.00;101310.56;4992284;28;20512;-81
2023/11/16 01:38:50;;;;;;;20.70;2.95;;;;;;;7.08;100.00;101318.59;4989802;28;20029;-81
2023/11/16 01:41:16;;;;;;;8.60;2.63;;;;;;;7.01;100.00;101316.53;4987627;28;20662;-81
2023/11/16 01:43:42;;;;;;;8.57;2.90;;;;;;;7.10;100.00;101324.47;5029854;28;20028;-82
2023/11/16 01:46:09;;;;;;;16.17;2.85;;;;;;;7.01;100.00;101310.56;5006068;28;20412;-78
2023/11/16 01:48:39;;;;;;;19.10;2.65;;;;;;;6.95;100.00;101311.00;5011154;28;20021;-79
2023/11/16 01:51:08;;;;;;;14.20;2.95;;;;;;;6.97;100.00;101309.97;5001872;28;20052;-81
2023/11/16 01:53:39;;;;;;;19.17;2.53;;;;;;;6.91;100.00;101302.72;4987027;28;20037;-78
2023/11/16 01:56:07;;;;;;;13.20;2.50;;;;;;;7.06;100.00;101305.81;4990154;28;20084;-79
2023/11/16 01:58:33;;;;;;;15.43;2.67;;;;;;;7.06;100.00;101305.81;5006081;28;20021;-78
2023/11/16 02:01:00;;;;;;;10.60;2.63;;;;;;;6.98;100.00;101311.59;5002996;28;20102;-82
2023/11/16 02:03:26;;;;;;;13.20;2.80;;;;;;;7.06;100.00;101307.59;4999349;28;20033;-78
2023/11/16 02:05:52;;;;;;;13.35;2.70;;;;;;;6.93;100.00;101313.72;5011576;28;20520;-78
2023/11/16 02:08:18;;;;;;;17.95;2.65;;;;;;;7.02;100.00;101310.41;5001986;28;20072;-80
2023/11/16 02:10:43;;;;;;;11.38;2.50;;;;;;;7.03;100.00;101311.25;4987288;28;20412;-80
2023/11/16 02:13:21;;;;;;;13.90;3.10;;;;;;;6.97;100.00;101309.97;4998417;28;20036;-80
2023/11/16 02:15:55;;;;;;;16.30;3.42;;;;;;;7.02;100.00;101301.84;4999399;28;20421;-84
2023/11/16 02:18:22;;;;;;;15.13;3.25;;;;;;;6.96;100.00;101295.41;5005766;28;20026;-81
2023/11/16 02:20:48;;;;;;;14.07;3.53;;;;;;;6.85;100.00;101292.06;4996813;28;20037;-82
2023/11/16 02:23:20;;;;;;;14.98;2.95;;;;;;;6.90;100.00;101288.19;4994718;28;20040;-79
2023/11/16 02:25:49;;;;;;;11.18;2.45;;;;;;;6.75;100.00;101287.59;4990347;28;20041;-80
2023/11/16 02:28:16;;;;;;;9.88;2.63;;;;;;;6.70;100.00;101281.97;4995309;28;20041;-79
2023/11/16 02:30:43;;;;;;;13.90;2.60;;;;;;;6.69;100.00;101287.28;5005302;28;20061;-78
2023/11/16 02:33:09;;;;;;;16.95;3.05;;;;;;;6.70;100.00;101287.13;4995443;28;20104;-79
2023/11/16 02:35:35;;;;;;;16.35;3.05;;;;;;;6.77;100.00;101279.75;5006689;28;20508;-79
2023/11/16 02:38:06;;;;;;;14.48;3.97;;;;;;;6.70;100.00;101279.41;5006134;28;20038;-79
2023/11/16 02:40:32;;;;;;;25.70;3.05;;;;;;;6.70;100.00;101281.97;4991833;28;20409;-84
2023/11/16 02:42:57;;;;;;;19.38;3.47;;;;;;;6.66;100.00;101295.25;5002317;28;20044;-78
2023/11/16 02:45:23;;;;;;;16.73;2.70;;;;;;;6.61;100.00;101295.56;4998960;28;20041;-79
2023/11/16 02:47:50;;;;;;;13.85;2.53;;;;;;;6.61;100.00;101293.00;4997667;28;20030;-83
2023/11/16 02:50:16;;;;;;;15.15;3.10;;;;;;;6.57;100.00;101292.44;5002932;28;20041;-78
2023/11/16 02:52:45;;;;;;;14.48;3.20;;;;;;;6.61;100.00;101286.09;4993587;28;20072;-78
2023/11/16 02:55:11;;;;;;;17.25;2.88;;;;;;;6.58;100.00;101285.53;4987514;28;20054;-78
2023/11/16 02:57:39;;;;;;;16.42;3.10;;;;;;;6.60;100.00;101286.22;4990550;28;20111;-79
2023/11/16 03:00:08;;;;;;;18.88;2.83;;;;;;;6.57;100.00;101291.59;4984928;28;20041;-79
2023/11/16 03:02:33;;;;;;;18.38;3.08;;;;;;;6.50;100.00;101290.44;5000436;28;20037;-79
2023/11/16 03:04:59;;;;;;;17.20;2.88;;;;;;;6.50;100.00;101280.13;5012859;28;20417;-78
2023/11/16 03:07:24;;;;;;;19.30;3.28;;;;;;;6.59;100.00;101287.16;5004816;28;20108;-82
2023/11/16 03:09:50;;;;;;;12.50;2.85;;;;;;;6.54;100.00;101297.81;4995109;28;20041;-78
2023/11/16 03:12:16;;;;;;;12.55;2.60;;;;;;;6.47;100.00;101293.25;4992138;28;20476;-79
2023/11/16 03:14:42;;;;;;;16.98;4.10;;;;;;;6.47;100.00;101296.63;5013664;28;20033;-79
2023/11/16 03:17:10;;;;;;;11.57;3.38;;;;;;;6.42;100.00;101284.13;4984083;28;20042;-80
2023/11/16 03:19:40;;;;;;;26.08;4.15;;;;;;;6.48;100.00;101289.72;4988571;28;20037;-82
2023/11/16 03:22:05;;;;;;;16.40;2.60;;;;;;;6.41;100.00;101289.38;5006487;28;20033;-78
2023/11/16 03:24:31;;;;;;;17.80;2.92;;;;;;;6.51;100.00;101292.06;5009032;28;20033;-78
2023/11/16 03:26:56;;;;;;;10.80;3.00;;;;;;;6.42;100.00;101280.69;4992092;28;20037;-79
2023/11/16 03:29:22;;;;;;;15.75;2.83;;;;;;;6.34;100.00;101283.88;5005156;28;20037;-79
2023/11/16 03:31:47;;;;;;;15.05;3.13;;;;;;;6.32;100.00;101288.31;4994359;28;20034;-78
2023/11/16 03:34:13;;;;;;;12.82;2.80;;;;;;;6.33;100.00;101283.97;5009617;28;20040;-79
2023/11/16 03:36:39;;;;;;;15.38;2.92;;;;;;;6.38;100.00;101281.88;4992931;28;20038;-79
2023/11/16 03:39:04;;;;;;;13.02;2.72;;;;;;;6.35;100.00;101284.72;5012388;28;20089;-79
2023/11/16 03:41:32;;;;;;;14.60;3.22;;;;;;;6.34;100.00;101283.88;5000036;28;20512;-77
2023/11/16 03:43:57;;;;;;;18.27;2.75;;;;;;;6.40;100.00;101296.31;4992801;28;20033;-80
2023/11/16 03:46:23;;;;;;;16.52;3.42;;;;;;;6.37;100.00;101295.72;5002229;28;20065;-81
2023/11/16 03:48:48;;;;;;;17.05;2.97;;;;;;;6.46;100.00;101297.59;5012709;28;20476;-80
2023/11/16 03:51:13;;;;;;;15.75;2.58;;;;;;;6.45;100.00;101295.94;5007429;28;20033;-80
2023/11/16 03:53:39;;;;;;;12.18;2.67;;;;;;;6.35;100.00;101288.09;4992962;28;20032;-77
2023/11/16 03:56:05;;;;;;;18.13;3.88;;;;;;;6.46;100.00;101289.03;5001109;28;20038;-77
2023/11/16 03:58:30;;;;;;;21.17;3.45;;;;;;;6.38;100.00;101293.00;5005558;28;20044;-79
2023/11/16 04:00:56;;;;;;;16.25;3.15;;;;;;;6.35;100.00;101292.44;4994739;28;20492;-83
2023/11/16 04:03:22;;;;;;;14.32;3.70;;;;;;;6.31;100.00;101281.53;5021113;28;20030;-78
2023/11/16 04:05:48;;;;;;;11.48;2.60;;;;;;;6.34;100.00;101277.91;4989337;28;20049;-79
2023/11/16 04:08:14;;;;;;;12.18;3.00;;;;;;;6.32;100.00;101277.22;5009296;28;20026;-77
2023/11/16 04:10:39;;;;;;;20.02;3.15;;;;;;;6.36;100.00;101276.84;5010446;28;20169;-77
2023/11/16 04:13:06;;;;;;;24.70;2.83;;;;;;;6.37;100.00;101275.91;5009630;28;20037;-79
2023/11/16 04:15:32;;;;;;;20.42;2.97;;;;;;;6.34;100.00;101288.22;5006605;28;20037;-84
2023/11/16 04:17:57;;;;;;;14.63;3.17;;;;;;;6.40;100.00;101280.84;5015053;28;20048;-77
2023/11/16 04:20:23;;;;;;;14.32;3.10;;;;;;;6.42;100.00;101284.13;5005696;28;20046;-77
2023/11/16 04:22:49;;;;;;;14.13;3.65;;;;;;;6.42;100.00;101278.13;5001068;28;20026;-78
2023/11/16 04:25:28;;;;;;;18.52;2.90;;;;;;;6.47;100.00;101277.78;5004047;28;20401;-78
2023/11/16 04:28:02;;;;;;;12.35;2.85;;;;;;;6.39;100.00;101279.19;4991519;28;20032;-78
2023/11/16 04:30:30;;;;;;;9.43;2.53;;;;;;;6.56;100.00;101266.78;4991393;28;20038;-79
2023/11/16 04:32:59;;;;;;;10.20;2.60;;;;;;;6.46;100.00;101266.69;4988935;28;20038;-83
2023/11/16 04:35:24;;;;;;;10.98;2.90;;;;;;;6.40;100.00;101270.53;5000651;28;20029;-79
2023/11/16 04:37:50;;;;;;;16.00;3.08;;;;;;;6.37;100.00;101269.97;5020208;28;20030;-79
2023/11/16 04:40:16;;;;;;;11.27;2.38;;;;;;;6.34;100.00;101259.88;5007336;28;20029;-78
2023/11/16 04:42:42;;;;;;;16.83;3.40;;;;;;;6.39;100.00;101256.00;5010252;28;20033;-78
2023/11/16 04:45:12;;;;;;;17.55;3.50;;;;;;;6.38;100.00;101254.34;5005176;28;20034;-78
2023/11/16 04:47:46;;;;;;;16.48;3.00;;;;;;;6.36;100.00;101245.94;4991630;28;20033;-78
2023/11/16 04:50:17;;;;;;;19.30;3.80;;;;;;;6.45;100.00;101251.34;5017335;28;20030;-77
2023/11/16 04:52:46;;;;;;;13.35;3.00;;;;;;;6.41;100.00;101254.13;5012722;28;20029;-80
2023/11/16 04:55:12;;;;;;;23.52;3.30;;;;;;;6.48;100.00;101261.38;5000817;28;20065;-82
2023/11/16 04:57:42;;;;;;;14.40;4.32;;;;;;;6.55;100.00;101247.09;5025610;28;20097;-80
2023/11/16 05:00:13;;;;;;;20.20;3.30;;;;;;;6.47;100.00;101246.88;4991326;28;21214;-79
2023/11/16 05:02:38;;;;;;;18.80;3.67;;;;;;;6.48;100.00;101258.81;4987066;28;20033;-79
2023/11/16 05:05:04;;;;;;;14.45;2.78;;;;;;;6.42;100.00;101255.78;4994655;28;20026;-79
2023/11/16 05:07:29;;;;;;;16.95;4.35;;;;;;;6.52;100.00;101257.66;5022676;28;20021;-78
2023/11/16 05:09:58;;;;;;;10.68;3.15;;;;;;;6.46;100.00;101258.09;5009556;28;20481;-77
2023/11/16 05:12:24;;;;;;;11.10;3.40;;;;;;;6.37;100.00;101250.16;4999984;28;20052;-83
2023/11/16 05:14:51;;;;;;;16.50;3.17;;;;;;;6.37;100.00;101259.66;5022892;28;20381;-83
2023/11/16 05:17:16;;;;;;;16.40;3.28;;;;;;;6.40;100.00;101255.09;5008404;28;20570;-79
2023/11/16 05:19:42;;;;;;;14.77;3.05;;;;;;;6.44;100.00;101258.22;5001282;28;20034;-81
2023/11/16 05:22:07;;;;;;;11.82;3.00;;;;;;;6.62;100.00;101263.72;5009897;28;20052;-79
2023/11/16 05:24:33;;;;;;;15.02;3.60;;;;;;;6.63;100.00;101255.88;5005991;28;20052;-79
2023/11/16 05:27:02;;;;;;;25.85;3.88;;;;;;;6.59;100.00;101254.50;5007901;28;20488;-78
2023/11/16 05:29:31;;;;;;;16.00;2.80;;;;;;;6.51;100.00;101256.00;4991336;28;20041;-78
2023/11/16 05:31:57;;;;;;;27.52;4.35;;;;;;;6.50;100.00;101255.19;4990922;28;20014;-79
2023/11/16 05:34:23;;;;;;;18.13;3.13;;;;;;;6.47;100.00;101255.41;5007317;28;20029;-79
2023/11/16 05:36:49;;;;;;;12.90;3.42;;;;;;;6.51;100.00;101253.44;5021364;28;20037;-79
2023/11/16 05:39:16;;;;;;;13.20;2.80;;;;;;;6.51;100.00;101250.84;5012806;28;20035;-80
2023/11/16 05:41:42;;;;;;;19.25;3.55;;;;;;;6.58;100.00;101245.09;5006907;28;20037;-79
2023/11/16 05:44:07;;;;;;;12.45;2.95;;;;;;;6.68;100.00;101241.81;5003491;28;20396;-80
2023/11/16 05:46:33;;;;;;;19.38;3.05;;;;;;;6.63;100.00;101244.75;4989058;28;20533;-78
2023/11/16 05:48:58;;;;;;;17.60;3.05;;;;;;;6.58;100.00;101242.53;4999628;28;20045;-78
2023/11/16 05:51:24;;;;;;;19.00;3.17;;;;;;;6.51;100.00;101236.19;4992548;28;20034;-79
2023/11/16 05:53:49;;;;;;;13.07;2.92;;;;;;;6.55;100.00;101231.63;5001460;28;20053;-78
2023/11/16 05:56:15;;;;;;;11.35;2.88;;;;;;;6.57;100.00;101237.50;4991077;28;20042;-80
2023/11/16 05:58:42;;;;;;;8.50;3.10;;;;;;;6.58;100.00;101241.72;4987940;28;20037;-84
2023/11/16 06:01:11;;;;;;;11.60;3.45;;;;;;;6.54;100.00;101235.16;5012968;28;20033;-80
2023/11/16 06:03:36;;;;;;;13.48;2.85;;;;;;;6.61;100.00;101236.31;5022161;28;20038;-78
2023/11/16 06:06:01;;;;;;;19.70;3.88;;;;;;;6.65;100.00;101237.72;4994097;28;20467;-79
2023/11/16 06:08:29;;;;;;;12.15;3.05;;;;;;;6.61;100.00;101226.00;4987650;28;20107;-78
2023/11/16 06:10:54;;;;;;;19.60;4.05;;;;;;;6.58;100.00;101227.06;5008484;28;20033;-79
2023/11/16 06:13:22;;;;;;;13.77;3.78;;;;;;;6.55;100.00;101231.63;4993549;28;20496;-83
2023/11/16 06:15:48;;;;;;;14.05;3.10;;;;;;;6.59;100.00;101228.72;4987146;28;20564;-87
2023/11/16 06:18:14;;;;;;;14.82;3.20;;;;;;;6.66;100.00;101215.34;4985789;28;20034;-80
2023/11/16 06:20:40;;;;;;;16.40;2.92;;;;;;;6.65;100.00;101214.53;4991300;28;20040;-78
2023/11/16 06:23:06;;;;;;;9.05;2.83;;;;;;;6.63;100.00;101208.69;4994247;28;20155;-79
2023/11/16 06:25:32;;;;;;;14.50;3.50;;;;;;;6.62;100.00;101207.03;5004144;28;20516;-84
2023/11/16 06:27:57;;;;;;;21.38;5.82;;;;;;;6.60;100.00;101202.00;4989925;28;20092;-79
2023/11/16 06:30:24;;;;;;;22.30;5.00;;;;;;;6.56;100.00;101200.59;4996215;28;20048;-82
2023/11/16 06:32:49;;;;;;;18.17;3.90;;;;;;;6.54;100.00;101199.91;5003057;28;20091;-80
2023/11/16 06:35:15;;;;;;;11.60;2.97;;;;;;;6.52;100.00;101200.97;4984886;28;20030;-77
2023/11/16 06:37:40;;;;;;;17.95;3.40;;;;;;;6.53;100.00;101203.41;5005667;28;20037;-79
2023/11/16 06:40:09;;;;;;;19.42;3.80;;;;;;;6.62;100.00;101196.72;4990134;28;20038;-78
2023/11/16 06:42:36;;;;;;;17.95;5.15;;;;;;;6.57;100.00;101198.84;5018565;28;20034;-82
2023/11/16 06:45:06;;;;;;;10.13;4.15;;;;;;;6.58;100.00;101198.72;5003910;28;20040;-82
2023/11/16 06:47:35;;;;;;;11.57;3.90;;;;;;;6.58;100.00;101196.16;4993178;28;20080;-79
2023/11/16 06:50:03;;;;;;;33.63;12.10;;;;;;;6.62;100.00;101202.69;5008557;28;20038;-78
2023/11/16 06:52:28;;;;;;;19.55;6.63;;;;;;;6.57;100.00;101198.84;5005010;28;20468;-78
2023/11/16 06:54:54;;;;;;;12.10;4.38;;;;;;;6.54;100.00;101194.75;4990065;28;20095;-79
2023/11/16 06:57:22;;;;;;;13.50;4.13;;;;;;;6.53;100.00;101187.94;5001642;28;20030;-81
2023/11/16 06:59:53;;;;;;;15.77;3.50;;;;;;;6.51;100.00;101183.88;5025510;28;20049;-78
2023/11/16 07:02:19;;;;;;;17.42;4.85;;;;;;;6.48;100.00;101179.78;4983173;28;20029;-79
2023/11/16 07:04:46;;;;;;;13.95;4.20;;;;;;;6.48;100.00;101176.34;5001159;28;20033;-80
2023/11/16 07:07:11;;;;;;;13.00;5.57;;;;;;;6.48;100.00;101176.34;4993913;28;20035;-86
2023/11/16 07:09:37;;;;;;;13.95;4.50;;;;;;;6.49;100.00;101173.66;5009324;28;20038;-78
2023/11/16 07:12:04;;;;;;;15.02;4.10;;;;;;;6.49;100.00;101170.28;4988928;28;20032;-79
2023/11/16 07:14:29;;;;;;;18.67;4.22;;;;;;;6.52;100.00;101165.72;4987792;28;20121;-80
2023/11/16 07:16:56;;;;;;;16.42;4.43;;;;;;;6.51;100.00;101164.06;4986842;28;20086;-78
2023/11/16 07:19:22;;;;;;;12.38;3.60;;;;;;;6.52;100.00;101160.56;5017826;28;20069;-78
2023/11/16 07:21:48;;;;;;;18.17;3.75;;;;;;;6.53;100.00;101145.91;5018414;28;20037;-79
2023/11/16 07:24:14;;;;;;;9.95;3.03;;;;;;;6.52;100.00;101149.44;5012760;28;20039;-78
2023/11/16 07:26:40;;;;;;;12.85;3.05;;;;;;;6.53;100.00;101140.75;4983744;28;20034;-80
2023/11/16 07:29:06;;;;;;;10.10;2.90;;;;;;;6.52;100.00;101144.28;5012956;28;20044;-88
2023/11/16 07:31:32;;;;;;;12.27;3.50;;;;;;;6.55;100.00;101136.31;5013420;28;20130;-80
2023/11/16 07:33:58;;;;;;;9.20;2.92;;;;;;;6.53;100.00;101131.25;5009632;28;20037;-85
2023/11/16 07:36:27;;;;;;;19.70;6.60;;;;;;;6.55;100.00;101133.72;5010639;28;20120;-78
2023/11/16 07:38:57;;;;;;;13.52;6.35;;;;;;;6.55;100.00;101124.22;4995968;28;20033;-81
2023/11/16 07:41:23;;;;;;;15.25;5.43;;;;;;;6.57;100.00;101116.38;5015379;28;20044;-79
2023/11/16 07:43:49;;;;;;;16.08;5.28;;;;;;;6.57;100.00;101111.22;5016706;28;20045;-81
2023/11/16 07:46:15;;;;;;;13.60;4.60;;;;;;;6.56;100.00;101117.34;4998451;28;20040;-79
2023/11/16 07:48:43;;;;;;;12.70;4.70;;;;;;;6.57;100.00;101114.66;5006482;28;20021;-81
2023/11/16 07:51:09;;;;;;;18.13;6.47;;;;;;;6.59;100.00;101110.19;4999957;28;20053;-80
2023/11/16 07:53:34;;;;;;;17.58;4.85;;;;;;;6.59;100.00;101115.34;5013148;28;20507;-80
2023/11/16 07:56:05;;;;;;;16.17;4.60;;;;;;;6.64;100.00;101122.69;4999795;28;20034;-82
2023/11/16 07:58:39;;;;;;;11.60;2.67;;;;;;;6.65;100.00;101116.59;4994869;28;20120;-82
2023/11/16 08:01:11;;;;;;;10.05;2.70;;;;;;;6.66;100.00;101110.50;5009490;28;20048;-81
2023/11/16 08:03:43;;;;;;;14.23;3.40;;;;;;;6.68;100.00;101107.81;5006464;28;20037;-80
2023/11/16 08:06:14;;;;;;;13.75;2.70;;;;;;;6.71;100.00;101105.00;4995404;28;20158;-78
2023/11/16 08:08:45;;;;;;;9.68;2.90;;;;;;;6.75;100.00;101099.44;5031613;28;20469;-79
2023/11/16 08:11:11;;;;;;;12.48;3.85;;;;;;;6.78;100.00;101099.22;4995632;28;20412;-78
2023/11/16 08:13:41;;;;;;;14.48;3.53;;;;;;;6.84;100.00;101108.22;5004471;28;20100;-79
2023/11/16 08:16:21;;;;;;;8.93;2.53;;;;;;;6.87;100.00;101101.97;4990333;28;20034;-78
2023/11/16 08:18:48;;;;;;;13.48;3.80;;;;;;;6.88;100.00;101098.47;5019663;28;20079;-78
2023/11/16 08:21:14;;;;;;;14.20;3.90;;;;;;;6.93;100.00;101099.75;4995028;28;20038;-77
2023/11/16 08:23:45;;;;;;;12.68;4.25;;;;;;;6.93;100.00;101092.00;5015660;28;20084;-79
2023/11/16 08:26:15;;;;;;;15.82;6.10;;;;;;;6.95;100.00;101097.00;4994781;28;20112;-79
2023/11/16 08:28:44;;;;;;;15.48;4.95;;;;;;;6.94;100.00;101097.97;5001314;28;20029;-80
2023/11/16 08:31:12;;;;;;;14.38;4.25;;;;;;;6.97;100.00;101101.13;5000720;28;20128;-82
2023/11/16 08:33:39;;;;;;;9.90;3.38;;;;;;;6.99;100.00;101108.72;5016233;28;20501;-83
2023/11/16 08:36:08;;;;;;;12.93;4.65;;;;;;;7.04;100.00;101111.72;5004688;28;20029;-81
2023/11/16 08:38:39;;;;;;;10.95;5.45;;;;;;;7.08;100.00;101102.00;5007583;28;20036;-81
2023/11/16 08:41:05;;;;;;;13.48;5.25;;;;;;;7.15;100.00;101110.84;4994509;28;20091;-80
2023/11/16 08:43:33;;;;;;;17.83;6.72;;;;;;;7.15;100.00;101098.78;5018278;28;20408;-79
2023/11/16 08:45:59;;;;;;;16.70;5.72;;;;;;;7.18;100.00;101100.31;4995302;28;20038;-81
2023/11/16 08:48:31;;;;;;;10.15;3.65;;;;;;;7.18;100.00;101100.31;5000440;28;20065;-80
2023/11/16 08:51:07;;;;;;;18.60;4.05;;;;;;;7.24;100.00;101097.22;4990675;28;20521;-79
2023/11/16 08:53:41;;;;;;;22.90;4.38;;;;;;;7.35;100.00;101083.44;4995115;28;20075;-79
2023/11/16 08:56:07;;;;;;;23.73;6.78;;;;;;;7.38;100.00;101089.16;4990577;28;20404;-80
2023/11/16 08:58:37;;;;;;;12.38;5.15;;;;;;;7.44;100.00;101081.81;4999961;28;20029;-78
2023/11/16 09:01:04;;;;;;;13.15;4.10;;;;;;;7.40;100.00;101089.00;4991196;28;20560;-78
2023/11/16 09:03:36;;;;;;;18.33;5.20;;;;;;;7.39;100.00;101089.97;5026430;28;20025;-79
2023/11/16 09:06:05;;;;;;;11.05;3.78;;;;;;;7.49;100.00;101097.75;5008615;28;20045;-79
2023/11/16 09:08:37;;;;;;;26.63;12.02;;;;;;;7.48;100.00;101083.19;5006812;28;20029;-80
2023/11/16 09:11:03;;;;;;;22.10;8.32;;;;;;;7.45;100.00;101071.38;4990604;28;20030;-80
2023/11/16 09:13:29;;;;;;;14.23;4.45;;;;;;;7.46;100.00;101070.44;5021666;28;20026;-80
2023/11/16 09:15:55;;;;;;;13.77;3.45;;;;;;;7.52;100.00;101067.34;4996840;28;20407;-80
2023/11/16 09:18:23;;;;;;;23.48;4.35;;;;;;;7.68;100.00;101071.19;5006868;28;20405;-83
2023/11/16 09:20:50;;;;;;;15.50;3.70;;;;;;;7.61;100.00;101070.94;4995176;28;20460;-79
2023/11/16 09:23:16;;;;;;;14.43;3.70;;;;;;;7.52;100.00;101069.13;5010663;28;20033;-79
2023/11/16 09:25:43;;;;;;;16.88;3.75;;;;;;;7.56;100.00;101073.88;5008835;28;20041;-80
2023/11/16 09:28:11;;;;;;;23.20;3.97;;;;;;;7.56;100.00;101060.16;5005320;28;20025;-82
2023/11/16 09:30:39;;;;;;;11.80;3.97;;;;;;;7.55;100.00;101051.63;4995496;28;20085;-79
2023/11/16 09:33:08;;;;;;;17.70;3.83;;;;;;;7.53;100.00;101052.66;5011473;28;20572;-79
2023/11/16 09:35:34;;;;;;;13.70;3.95;;;;;;;7.53;100.00;101043.16;5007765;28;20045;-83
2023/11/16 09:38:05;;;;;;;13.27;4.85;;;;;;;7.64;100.00;101044.84;5001861;28;20037;-83
2023/11/16 09:40:33;;;;;;;16.27;4.13;;;;;;;7.71;100.00;101047.72;5024391;28;20049;-87
2023/11/16 09:43:04;;;;;;;21.50;4.50;;;;;;;7.66;100.00;101042.13;5023455;28;20088;-81
2023/11/16 09:45:31;;;;;;;23.35;5.13;;;;;;;7.76;100.00;101041.22;5006845;28;20053;-79
2023/11/16 09:48:10;;;;;;;13.35;3.15;;;;;;;7.72;100.00;101031.28;5007225;28;20022;-79
2023/11/16 09:50:41;;;;;;;15.45;3.83;;;;;;;7.89;100.00;101029.81;4999231;28;20029;-79
2023/11/16 09:53:08;;;;;;;16.42;3.90;;;;;;;7.85;100.00;101031.84;5010319;28;20071;-80
2023/11/16 09:55:37;;;;;;;18.00;3.63;;;;;;;7.83;100.00;101028.59;5034539;28;20040;-80
2023/11/16 09:58:11;;;;;;;10.27;2.97;;;;;;;7.82;100.00;101020.97;4995790;28;20108;-79
2023/11/16 10:00:43;;;;;;;15.77;3.40;;;;;;;7.83;100.00;101014.88;5014350;28;20123;-79
2023/11/16 10:03:08;;;;;;;14.38;3.10;;;;;;;7.84;100.00;101003.59;5030204;28;20042;-79
2023/11/16 10:05:37;;;;;;;8.88;2.60;;;;;;;7.88;100.00;101008.34;5008555;28;20108;-79
2023/11/16 10:08:04;;;;;;;10.50;3.13;;;;;;;7.89;100.00;101002.25;4998220;28;20034;-82
2023/11/16 10:10:29;;;;;;;15.00;3.10;;;;;;;7.85;100.00;100993.13;4995170;28;20041;-79
2023/11/16 10:12:56;;;;;;;9.73;2.97;;;;;;;7.83;100.00;100994.22;4995648;28;20039;-78
2023/11/16 10:15:23;;;;;;;22.58;3.20;;;;;;;7.94;100.00;100992.31;5019105;28;20061;-82
2023/11/16 10:17:49;;;;;;;12.07;2.85;;;;;;;7.93;100.00;100980.38;4990650;28;20049;-78
2023/11/16 10:20:16;;;;;;;11.85;2.80;;;;;;;7.88;100.00;100984.31;4988213;28;20034;-81
2023/11/16 10:22:45;;;;;;;18.95;3.33;;;;;;;7.90;100.00;100987.56;4994285;28;20087;-80
2023/11/16 10:25:12;;;;;;;11.93;3.10;;;;;;;7.88;100.00;100979.94;4988749;28;20046;-87
2023/11/16 10:27:39;;;;;;;18.25;2.92;;;;;;;7.92;100.00;100981.31;5012312;28;20026;-80
2023/11/16 10:30:06;;;;;;;9.95;2.60;;;;;;;7.89;100.00;100965.28;5007343;28;20061;-78
2023/11/16 10:32:33;;;;;;;14.20;3.22;;;;;;;7.99;100.00;100973.84;5011867;28;20053;-78
2023/11/16 10:35:05;;;;;;;12.38;3.28;;;;;;;7.91;100.00;100965.94;5008759;28;20095;-81
2023/11/16 10:37:32;;;;;;;14.43;3.17;;;;;;;7.90;100.00;100977.25;5007836;28;20046;-79
2023/11/16 10:40:01;;;;;;;15.95;3.40;;;;;;;7.93;100.00;100976.94;5007543;28;20120;-81
2023/11/16 10:42:27;;;;;;;8.45;3.03;;;;;;;7.90;100.00;100977.25;5008635;28;20409;-80
2023/11/16 10:44:52;;;;;;;8.70;2.58;;;;;;;7.91;100.00;100976.28;4993810;28;20034;-82
2023/11/16 10:47:20;;;;;;;13.15;3.05;;;;;;;7.91;100.00;100964.19;4993868;28;20040;-83
2023/11/16 10:49:47;;;;;;;16.40;3.15;;;;;;;7.93;100.00;100964.88;4986625;28;20037;-79
2023/11/16 10:52:15;;;;;;;13.68;2.97;;;;;;;7.88;100.00;100971.41;5004325;28;20026;-79
2023/11/16 10:55:04;;;;;;;7.70;2.38;;;;;;;7.85;100.00;100962.13;5002558;28;20041;-80
2023/11/16 10:57:31;;;;;;;18.13;3.17;;;;;;;7.83;100.00;100950.31;5002016;28;20073;-80
2023/11/16 11:00:00;;;;;;;10.27;2.70;;;;;;;7.80;100.00;100954.00;5003725;28;20038;-81
2023/11/16 11:02:27;;;;;;;9.73;2.80;;;;;;;7.82;100.00;100946.94;5005341;28;20038;-82
2023/11/16 11:04:53;;;;;;;17.67;3.33;;;;;;;7.89;100.00;100934.28;4991241;28;20129;-80
2023/11/16 11:07:19;;;;;;;13.55;2.72;;;;;;;7.95;100.00;100941.50;5011539;28;20120;-81
2023/11/16 11:09:48;;;;;;;14.57;3.25;;;;;;;8.11;100.00;100934.03;5001878;28;20071;-86
2023/11/16 11:12:16;;;;;;;11.45;2.70;;;;;;;8.08;100.00;100930.88;5013270;28;20128;-81
2023/11/16 11:14:57;;;;;;;19.90;4.35;;;;;;;7.97;100.00;100931.88;5011015;28;20121;-81
2023/11/16 11:17:35;;;;;;;12.85;3.30;;;;;;;7.99;100.00;100922.22;5014424;28;20052;-86